Lakes of Four Seasons, Indiana
Current Conditions -  °F | °C
As of 5:15 PM on Thursday 20 Nov 2014 (Local Time) from KIGQ Reporting Station
Clear Clear  
Wind Chill: 17°   Ceiling: Unl
Heat Index: 25°   Visibility: 10mi
Dew Point:   Wind: 7mph
Humidity: 40%   Direction: 290°WNW
Pressure: 30.15"   Gusts: NA
Location:  41.4039°N, 87.3294°W
Report Text: KIGQ 202315Z AUTO 29006KT 10SM CLR M04/M16 A3015 RMK AO2 T10411161
Loading
Personal Weather Stations






























Interactive Weather Map New forecast layout! Learn more

10-Day Weather Forecast

Advertisements
Track Severe Weather on mobile